Leadville, CO

5:41 PM MDT op 02 september 2014 (GMT -0600)
Lake County | Change Station
CLOSE
Current Station
Luchthaven
Location: Leadville,
Geometrische hoogte: 9928 ft
Nabije weerstations

Hoogte 9928 ft 39.23 °N, 106.32 °W | Updated 48 minutes ago

Partly Cloudy
Gedeeltelijk bewolkt
68 °F
Voelt als 68 °F
N
13
Wind Variabel Wind van NW
Gusts 18 mijl/u

Vandaag
Hoog -- | Laag -- °F
--% Kans op neerslag
Gisteren
Hoog -- | Laag -- °F
Precip. -- inches
6:34 AM 7:34 PM
Eerste kwartier, 56% visible
Druk 29.89 inches
Zicht 10.0 mijlen
Wolken Gering 9000 ft
Dauwpunt 27 °F
Vochtigheid 21%
Neerslag 0.00 inches
Dikte sneeuw 0 in , 187 in
UV 3 van de 12
Pollen 10.10 van de 12
Luchtkwaliteit Niet beschikbaar.
Flu Activity Niet beschikbaar.
METAR KLXV 022253Z AUTO 31011G16KT 10SM FEW090 20/M03 A3035 RMK AO2 SLP122 T02001028

More Conditions Fewer Conditions

Druk 29.89 inches
Zicht 10.0 mijlen
Wolken Gering 9000 ft
Dauwpunt 27 °F
Vochtigheid 21%
Neerslag 0.00 inches
Dikte sneeuw 0 in , 187 in
UV 3 van de 12
Pollen 10.10 van de 12
Luchtkwaliteit Niet beschikbaar.
Flu Activity Niet beschikbaar.
METAR KLXV 022253Z AUTO 31011G16KT 10SM FEW090 20/M03 A3035 RMK AO2 SLP122 T02001028

More Conditions Fewer Conditions

10-Day Weather Forecast

Almanac

Astronomie

Sep. 02, 2014 Opkomst Ondergang
Werkelijke tijd 6:34 AM MDT 7:34 PM MDT
Burgerlijke schemering 6:07 AM MDT 8:01 PM MDT
Nautische schemering 5:34 AM MDT 8:34 PM MDT
Astronomische schemering 5:00 AM MDT 9:07 PM MDT
Maan 2:18 PM MDT Geen maanondergang
Golflengte van het zichtbare licht 13h 54m
Daglengte
12h 59m
Tomorrow will be 2m 27s shorter.
Eerste kwartier, 56% of the Moon is Illuminated
Vandaag
Eerste kwartier
sep 8
Volle maan
sep 15
Laatste kwartier
sep 24
Nieuw
oktober 1
Eerste kwartier

Extremen vandaag

State Highs State Lows

Community

WunderPhotos

Upload Photos

1,749,799 foto’s ge-upload!

Nearby

Dikte sneeuw

Station Depth Geometrische hoogte
Rough And Tumble 0 in 10360 ft
Independence Pass 187 in 10600 ft
Vail Mountain 88 in 10300 ft
Mccoy Park 13 in 9480 ft
Jones Pass 0 in 10400 ft

Aardbevingen

Stad Distance Mag. Time & Date
No recent earthquake activity has been reported nearby.
Minimum magnitude displayed is 2.5.

Watertemperatuur langs de kust

Plaats Temperatuur
Geen meldingen van stations

Nabije weerstations